sensor_id;sensor_type;location;lat;lon;timestamp;P1;durP1;ratioP1;P2;durP2;ratioP2
32094;SDS011;18608;53.688;10.748;2023-08-12T00:00:29;4.40;;;3.10;;
32094;SDS011;18608;53.688;10.748;2023-08-12T00:02:55;5.20;;;3.27;;
32094;SDS011;18608;53.688;10.748;2023-08-12T00:05:21;3.97;;;3.63;;
32094;SDS011;18608;53.688;10.748;2023-08-12T00:07:47;5.23;;;3.90;;
32094;SDS011;18608;53.688;10.748;2023-08-12T00:10:13;4.93;;;3.93;;
32094;SDS011;18608;53.688;10.748;2023-08-12T00:12:39;6.77;;;5.10;;
32094;SDS011;18608;53.688;10.748;2023-08-12T00:15:06;4.27;;;3.00;;
32094;SDS011;18608;53.688;10.748;2023-08-12T00:17:33;4.57;;;3.43;;
32094;SDS011;18608;53.688;10.748;2023-08-12T00:20:00;6.70;;;4.30;;
32094;SDS011;18608;53.688;10.748;2023-08-12T00:22:30;4.80;;;4.23;;
32094;SDS011;18608;53.688;10.748;2023-08-12T00:24:56;5.97;;;4.13;;
32094;SDS011;18608;53.688;10.748;2023-08-12T00:27:22;3.30;;;3.10;;
32094;SDS011;18608;53.688;10.748;2023-08-12T00:29:48;4.77;;;4.27;;
32094;SDS011;18608;53.688;10.748;2023-08-12T00:32:14;5.10;;;3.40;;
32094;SDS011;18608;53.688;10.748;2023-08-12T00:34:40;5.80;;;3.50;;
32094;SDS011;18608;53.688;10.748;2023-08-12T00:37:06;3.13;;;3.00;;
32094;SDS011;18608;53.688;10.748;2023-08-12T00:39:32;3.27;;;3.00;;
32094;SDS011;18608;53.688;10.748;2023-08-12T00:41:58;5.93;;;2.77;;
32094;SDS011;18608;53.688;10.748;2023-08-12T00:44:24;4.10;;;3.13;;
32094;SDS011;18608;53.688;10.748;2023-08-12T00:46:50;4.43;;;3.40;;
32094;SDS011;18608;53.688;10.748;2023-08-12T00:49:17;5.73;;;3.50;;
32094;SDS011;18608;53.688;10.748;2023-08-12T00:51:43;9.00;;;4.00;;
32094;SDS011;18608;53.688;10.748;2023-08-12T00:54:14;5.43;;;3.00;;
32094;SDS011;18608;53.688;10.748;2023-08-12T00:56:41;4.20;;;3.50;;
32094;SDS011;18608;53.688;10.748;2023-08-12T00:59:08;7.13;;;4.07;;
32094;SDS011;18608;53.688;10.748;2023-08-12T01:01:35;5.50;;;3.27;;
32094;SDS011;18608;53.688;10.748;2023-08-12T01:04:05;3.47;;;2.67;;
32094;SDS011;18608;53.688;10.748;2023-08-12T01:06:31;5.57;;;3.00;;
32094;SDS011;18608;53.688;10.748;2023-08-12T01:08:58;5.40;;;3.70;;
32094;SDS011;18608;53.688;10.748;2023-08-12T01:14:01;3.10;;;2.80;;
32094;SDS011;18608;53.688;10.748;2023-08-12T01:16:39;8.20;;;3.70;;
32094;SDS011;18608;53.688;10.748;2023-08-12T01:19:06;5.97;;;3.17;;
32094;SDS011;18608;53.688;10.748;2023-08-12T01:21:36;4.17;;;2.90;;
32094;SDS011;18608;53.688;10.748;2023-08-12T01:24:08;3.20;;;2.90;;
32094;SDS011;18608;53.688;10.748;2023-08-12T01:26:34;2.93;;;2.73;;
32094;SDS011;18608;53.688;10.748;2023-08-12T01:29:00;5.70;;;3.00;;
32094;SDS011;18608;53.688;10.748;2023-08-12T01:31:34;15.67;;;3.60;;
32094;SDS011;18608;53.688;10.748;2023-08-12T01:34:07;4.43;;;3.70;;
32094;SDS011;18608;53.688;10.748;2023-08-12T01:36:39;3.37;;;3.13;;
32094;SDS011;18608;53.688;10.748;2023-08-12T01:39:09;9.30;;;4.17;;
32094;SDS011;18608;53.688;10.748;2023-08-12T01:41:35;5.07;;;4.23;;
32094;SDS011;18608;53.688;10.748;2023-08-12T01:44:02;5.17;;;3.47;;
32094;SDS011;18608;53.688;10.748;2023-08-12T01:46:28;4.67;;;2.90;;
32094;SDS011;18608;53.688;10.748;2023-08-12T01:48:54;5.77;;;2.90;;
32094;SDS011;18608;53.688;10.748;2023-08-12T01:51:20;4.33;;;3.60;;
32094;SDS011;18608;53.688;10.748;2023-08-12T01:53:46;4.70;;;2.93;;
32094;SDS011;18608;53.688;10.748;2023-08-12T01:56:12;5.70;;;3.03;;
32094;SDS011;18608;53.688;10.748;2023-08-12T01:58:38;3.20;;;3.00;;
32094;SDS011;18608;53.688;10.748;2023-08-12T02:01:04;3.00;;;2.80;;
32094;SDS011;18608;53.688;10.748;2023-08-12T02:03:30;5.33;;;3.67;;
32094;SDS011;18608;53.688;10.748;2023-08-12T02:05:56;6.07;;;2.97;;
32094;SDS011;18608;53.688;10.748;2023-08-12T02:08:22;10.83;;;2.80;;
32094;SDS011;18608;53.688;10.748;2023-08-12T02:10:48;3.83;;;3.50;;
32094;SDS011;18608;53.688;10.748;2023-08-12T02:13:14;6.57;;;3.47;;
32094;SDS011;18608;53.688;10.748;2023-08-12T02:15:40;7.20;;;2.83;;
32094;SDS011;18608;53.688;10.748;2023-08-12T02:18:06;8.80;;;3.93;;
32094;SDS011;18608;53.688;10.748;2023-08-12T02:20:32;4.23;;;3.17;;
32094;SDS011;18608;53.688;10.748;2023-08-12T02:22:58;16.50;;;4.00;;
32094;SDS011;18608;53.688;10.748;2023-08-12T02:25:24;4.43;;;3.80;;
32094;SDS011;18608;53.688;10.748;2023-08-12T02:27:50;3.60;;;3.30;;
32094;SDS011;18608;53.688;10.748;2023-08-12T02:30:16;3.73;;;3.30;;
32094;SDS011;18608;53.688;10.748;2023-08-12T02:32:42;3.70;;;3.07;;
32094;SDS011;18608;53.688;10.748;2023-08-12T02:35:09;6.67;;;3.13;;
32094;SDS011;18608;53.688;10.748;2023-08-12T02:37:35;3.80;;;3.40;;
32094;SDS011;18608;53.688;10.748;2023-08-12T02:40:01;4.30;;;4.00;;
32094;SDS011;18608;53.688;10.748;2023-08-12T02:42:29;2.93;;;2.73;;
32094;SDS011;18608;53.688;10.748;2023-08-12T02:44:55;3.13;;;2.90;;
32094;SDS011;18608;53.688;10.748;2023-08-12T02:47:21;3.50;;;3.10;;
32094;SDS011;18608;53.688;10.748;2023-08-12T02:49:47;3.63;;;2.97;;
32094;SDS011;18608;53.688;10.748;2023-08-12T02:52:13;4.20;;;3.13;;
32094;SDS011;18608;53.688;10.748;2023-08-12T02:54:39;2.93;;;2.73;;
32094;SDS011;18608;53.688;10.748;2023-08-12T02:57:05;4.93;;;3.23;;
32094;SDS011;18608;53.688;10.748;2023-08-12T02:59:31;5.57;;;2.73;;
32094;SDS011;18608;53.688;10.748;2023-08-12T03:01:57;5.10;;;3.57;;
32094;SDS011;18608;53.688;10.748;2023-08-12T03:04:24;4.80;;;3.00;;
32094;SDS011;18608;53.688;10.748;2023-08-12T03:06:50;3.00;;;2.80;;
32094;SDS011;18608;53.688;10.748;2023-08-12T03:09:16;4.10;;;3.40;;
32094;SDS011;18608;53.688;10.748;2023-08-12T03:11:43;4.67;;;3.37;;
32094;SDS011;18608;53.688;10.748;2023-08-12T03:14:09;3.60;;;3.30;;
32094;SDS011;18608;53.688;10.748;2023-08-12T03:16:35;3.67;;;3.37;;
32094;SDS011;18608;53.688;10.748;2023-08-12T03:19:01;6.47;;;3.70;;
32094;SDS011;18608;53.688;10.748;2023-08-12T03:21:27;4.23;;;3.20;;
32094;SDS011;18608;53.688;10.748;2023-08-12T03:23:53;5.37;;;3.67;;
32094;SDS011;18608;53.688;10.748;2023-08-12T03:26:19;5.07;;;2.90;;
32094;SDS011;18608;53.688;10.748;2023-08-12T03:28:45;4.13;;;3.13;;
32094;SDS011;18608;53.688;10.748;2023-08-12T03:31:11;5.00;;;3.30;;
32094;SDS011;18608;53.688;10.748;2023-08-12T03:33:37;7.30;;;3.53;;
32094;SDS011;18608;53.688;10.748;2023-08-12T03:36:03;7.97;;;3.03;;
32094;SDS011;18608;53.688;10.748;2023-08-12T03:38:29;4.03;;;3.20;;
32094;SDS011;18608;53.688;10.748;2023-08-12T03:40:55;6.97;;;3.13;;
32094;SDS011;18608;53.688;10.748;2023-08-12T03:43:21;3.60;;;3.30;;
32094;SDS011;18608;53.688;10.748;2023-08-12T03:45:47;4.40;;;2.97;;
32094;SDS011;18608;53.688;10.748;2023-08-12T03:48:13;5.00;;;3.43;;
32094;SDS011;18608;53.688;10.748;2023-08-12T03:50:40;5.47;;;3.40;;
32094;SDS011;18608;53.688;10.748;2023-08-12T03:53:07;11.10;;;4.13;;
32094;SDS011;18608;53.688;10.748;2023-08-12T03:55:34;5.00;;;3.83;;
32094;SDS011;18608;53.688;10.748;2023-08-12T03:58:00;3.40;;;2.97;;
32094;SDS011;18608;53.688;10.748;2023-08-12T04:00:26;5.03;;;3.40;;
32094;SDS011;18608;53.688;10.748;2023-08-12T04:02:52;3.27;;;2.97;;
32094;SDS011;18608;53.688;10.748;2023-08-12T04:05:18;3.17;;;2.83;;
32094;SDS011;18608;53.688;10.748;2023-08-12T04:07:44;7.93;;;3.20;;
32094;SDS011;18608;53.688;10.748;2023-08-12T04:10:10;2.60;;;2.40;;
32094;SDS011;18608;53.688;10.748;2023-08-12T04:12:36;5.33;;;3.40;;
32094;SDS011;18608;53.688;10.748;2023-08-12T04:15:03;7.73;;;3.57;;
32094;SDS011;18608;53.688;10.748;2023-08-12T04:17:30;3.60;;;3.30;;
32094;SDS011;18608;53.688;10.748;2023-08-12T04:19:57;3.30;;;3.00;;
32094;SDS011;18608;53.688;10.748;2023-08-12T04:22:23;3.53;;;3.20;;
32094;SDS011;18608;53.688;10.748;2023-08-12T04:24:49;6.60;;;3.30;;
32094;SDS011;18608;53.688;10.748;2023-08-12T04:27:15;3.93;;;3.57;;
32094;SDS011;18608;53.688;10.748;2023-08-12T04:29:45;3.70;;;3.43;;
32094;SDS011;18608;53.688;10.748;2023-08-12T04:32:11;4.87;;;4.10;;
32094;SDS011;18608;53.688;10.748;2023-08-12T04:34:37;7.03;;;3.03;;
32094;SDS011;18608;53.688;10.748;2023-08-12T04:37:03;5.73;;;4.27;;
32094;SDS011;18608;53.688;10.748;2023-08-12T04:39:29;5.97;;;3.70;;
32094;SDS011;18608;53.688;10.748;2023-08-12T04:41:57;11.13;;;3.13;;
32094;SDS011;18608;53.688;10.748;2023-08-12T04:44:24;4.13;;;2.57;;
32094;SDS011;18608;53.688;10.748;2023-08-12T04:46:50;3.93;;;3.53;;
32094;SDS011;18608;53.688;10.748;2023-08-12T04:49:16;4.80;;;3.67;;
32094;SDS011;18608;53.688;10.748;2023-08-12T04:51:42;4.93;;;3.00;;
32094;SDS011;18608;53.688;10.748;2023-08-12T04:54:08;3.93;;;3.53;;
32094;SDS011;18608;53.688;10.748;2023-08-12T04:56:34;6.30;;;3.90;;
32094;SDS011;18608;53.688;10.748;2023-08-12T04:59:00;3.83;;;3.50;;
32094;SDS011;18608;53.688;10.748;2023-08-12T05:01:26;5.20;;;3.20;;
32094;SDS011;18608;53.688;10.748;2023-08-12T05:03:52;4.17;;;3.53;;
32094;SDS011;18608;53.688;10.748;2023-08-12T05:06:18;6.70;;;3.50;;
32094;SDS011;18608;53.688;10.748;2023-08-12T05:08:44;3.93;;;3.63;;
32094;SDS011;18608;53.688;10.748;2023-08-12T05:11:10;12.77;;;3.07;;
32094;SDS011;18608;53.688;10.748;2023-08-12T05:13:36;4.20;;;3.80;;
32094;SDS011;18608;53.688;10.748;2023-08-12T05:16:02;14.73;;;3.30;;
32094;SDS011;18608;53.688;10.748;2023-08-12T05:18:28;3.70;;;3.40;;
32094;SDS011;18608;53.688;10.748;2023-08-12T05:20:54;6.60;;;3.83;;
32094;SDS011;18608;53.688;10.748;2023-08-12T05:23:20;12.40;;;3.60;;
32094;SDS011;18608;53.688;10.748;2023-08-12T05:25:46;4.43;;;3.27;;
32094;SDS011;18608;53.688;10.748;2023-08-12T05:28:12;10.07;;;4.37;;
32094;SDS011;18608;53.688;10.748;2023-08-12T05:30:38;4.80;;;3.67;;
32094;SDS011;18608;53.688;10.748;2023-08-12T05:33:04;11.40;;;3.80;;
32094;SDS011;18608;53.688;10.748;2023-08-12T05:35:34;4.00;;;3.60;;
32094;SDS011;18608;53.688;10.748;2023-08-12T05:38:00;4.20;;;3.40;;
32094;SDS011;18608;53.688;10.748;2023-08-12T05:40:26;4.50;;;3.10;;
32094;SDS011;18608;53.688;10.748;2023-08-12T05:42:52;3.40;;;3.10;;
32094;SDS011;18608;53.688;10.748;2023-08-12T05:45:18;4.37;;;2.60;;
32094;SDS011;18608;53.688;10.748;2023-08-12T05:47:44;3.50;;;3.20;;
32094;SDS011;18608;53.688;10.748;2023-08-12T05:50:10;3.93;;;3.47;;
32094;SDS011;18608;53.688;10.748;2023-08-12T05:52:36;7.30;;;3.30;;
32094;SDS011;18608;53.688;10.748;2023-08-12T05:55:02;4.93;;;3.43;;
32094;SDS011;18608;53.688;10.748;2023-08-12T05:57:28;2.73;;;2.53;;
32094;SDS011;18608;53.688;10.748;2023-08-12T05:59:54;8.10;;;3.57;;
32094;SDS011;18608;53.688;10.748;2023-08-12T06:02:20;4.10;;;3.77;;
32094;SDS011;18608;53.688;10.748;2023-08-12T06:04:46;3.67;;;3.43;;
32094;SDS011;18608;53.688;10.748;2023-08-12T06:07:12;3.80;;;3.47;;
32094;SDS011;18608;53.688;10.748;2023-08-12T06:09:38;5.33;;;3.97;;
32094;SDS011;18608;53.688;10.748;2023-08-12T06:12:04;7.03;;;3.30;;
32094;SDS011;18608;53.688;10.748;2023-08-12T06:14:30;5.03;;;3.63;;
32094;SDS011;18608;53.688;10.748;2023-08-12T06:16:56;9.40;;;4.20;;
32094;SDS011;18608;53.688;10.748;2023-08-12T06:19:22;4.77;;;4.20;;
32094;SDS011;18608;53.688;10.748;2023-08-12T06:21:49;4.87;;;3.40;;
32094;SDS011;18608;53.688;10.748;2023-08-12T06:24:15;4.87;;;4.30;;
32094;SDS011;18608;53.688;10.748;2023-08-12T06:26:41;5.67;;;3.80;;
32094;SDS011;18608;53.688;10.748;2023-08-12T06:29:06;6.83;;;4.27;;
32094;SDS011;18608;53.688;10.748;2023-08-12T06:31:32;8.13;;;3.70;;
32094;SDS011;18608;53.688;10.748;2023-08-12T06:33:58;4.30;;;3.90;;
32094;SDS011;18608;53.688;10.748;2023-08-12T06:36:25;4.23;;;3.93;;
32094;SDS011;18608;53.688;10.748;2023-08-12T06:38:51;4.60;;;3.63;;
32094;SDS011;18608;53.688;10.748;2023-08-12T06:41:17;4.87;;;4.10;;
32094;SDS011;18608;53.688;10.748;2023-08-12T06:43:43;6.80;;;4.27;;
32094;SDS011;18608;53.688;10.748;2023-08-12T06:46:09;5.43;;;4.07;;
32094;SDS011;18608;53.688;10.748;2023-08-12T06:48:35;4.13;;;3.73;;
32094;SDS011;18608;53.688;10.748;2023-08-12T06:51:01;10.63;;;5.17;;
32094;SDS011;18608;53.688;10.748;2023-08-12T06:53:35;4.80;;;3.80;;
32094;SDS011;18608;53.688;10.748;2023-08-12T06:56:01;6.27;;;4.40;;
32094;SDS011;18608;53.688;10.748;2023-08-12T06:58:27;4.00;;;3.60;;
32094;SDS011;18608;53.688;10.748;2023-08-12T07:00:53;7.73;;;4.50;;
32094;SDS011;18608;53.688;10.748;2023-08-12T07:03:19;4.70;;;4.27;;
32094;SDS011;18608;53.688;10.748;2023-08-12T07:05:44;4.10;;;3.70;;
32094;SDS011;18608;53.688;10.748;2023-08-12T07:08:11;4.80;;;4.40;;
32094;SDS011;18608;53.688;10.748;2023-08-12T07:10:40;6.80;;;4.33;;
32094;SDS011;18608;53.688;10.748;2023-08-12T07:13:06;6.03;;;4.20;;
32094;SDS011;18608;53.688;10.748;2023-08-12T07:15:32;4.20;;;3.90;;
32094;SDS011;18608;53.688;10.748;2023-08-12T07:17:59;7.53;;;4.70;;
32094;SDS011;18608;53.688;10.748;2023-08-12T07:20:25;6.83;;;4.60;;
32094;SDS011;18608;53.688;10.748;2023-08-12T07:22:51;6.90;;;4.10;;
32094;SDS011;18608;53.688;10.748;2023-08-12T07:25:17;9.83;;;4.90;;
32094;SDS011;18608;53.688;10.748;2023-08-12T07:27:43;6.13;;;5.00;;
32094;SDS011;18608;53.688;10.748;2023-08-12T07:30:09;5.53;;;4.40;;
32094;SDS011;18608;53.688;10.748;2023-08-12T07:32:36;4.20;;;3.90;;
32094;SDS011;18608;53.688;10.748;2023-08-12T07:35:02;4.57;;;3.93;;
32094;SDS011;18608;53.688;10.748;2023-08-12T07:37:30;4.37;;;4.07;;
32094;SDS011;18608;53.688;10.748;2023-08-12T07:39:56;7.20;;;4.23;;
32094;SDS011;18608;53.688;10.748;2023-08-12T07:42:22;4.43;;;3.67;;
32094;SDS011;18608;53.688;10.748;2023-08-12T07:44:48;4.90;;;4.37;;
32094;SDS011;18608;53.688;10.748;2023-08-12T07:47:14;6.67;;;3.63;;
32094;SDS011;18608;53.688;10.748;2023-08-12T07:49:41;4.97;;;4.00;;
32094;SDS011;18608;53.688;10.748;2023-08-12T07:52:07;6.97;;;4.67;;
32094;SDS011;18608;53.688;10.748;2023-08-12T07:54:33;4.40;;;3.73;;
32094;SDS011;18608;53.688;10.748;2023-08-12T07:56:59;6.27;;;4.40;;
32094;SDS011;18608;53.688;10.748;2023-08-12T07:59:25;5.57;;;4.23;;
32094;SDS011;18608;53.688;10.748;2023-08-12T08:01:51;8.70;;;5.50;;
32094;SDS011;18608;53.688;10.748;2023-08-12T08:04:17;6.83;;;4.20;;
32094;SDS011;18608;53.688;10.748;2023-08-12T08:06:43;6.90;;;4.00;;
32094;SDS011;18608;53.688;10.748;2023-08-12T08:09:09;4.97;;;4.40;;
32094;SDS011;18608;53.688;10.748;2023-08-12T08:11:35;5.73;;;4.47;;
32094;SDS011;18608;53.688;10.748;2023-08-12T08:14:01;3.93;;;3.60;;
32094;SDS011;18608;53.688;10.748;2023-08-12T08:16:27;6.27;;;3.97;;
32094;SDS011;18608;53.688;10.748;2023-08-12T08:18:53;6.20;;;4.40;;
32094;SDS011;18608;53.688;10.748;2023-08-12T08:21:19;8.30;;;4.10;;
32094;SDS011;18608;53.688;10.748;2023-08-12T08:23:45;4.50;;;4.00;;
32094;SDS011;18608;53.688;10.748;2023-08-12T08:26:12;7.03;;;5.20;;
32094;SDS011;18608;53.688;10.748;2023-08-12T08:28:40;5.10;;;4.60;;
32094;SDS011;18608;53.688;10.748;2023-08-12T08:31:06;10.90;;;4.53;;
32094;SDS011;18608;53.688;10.748;2023-08-12T08:33:32;11.93;;;4.80;;
32094;SDS011;18608;53.688;10.748;2023-08-12T08:35:58;6.93;;;4.67;;
32094;SDS011;18608;53.688;10.748;2023-08-12T08:38:24;4.43;;;4.10;;
32094;SDS011;18608;53.688;10.748;2023-08-12T08:40:50;7.93;;;4.87;;
32094;SDS011;18608;53.688;10.748;2023-08-12T08:43:19;5.33;;;4.40;;
32094;SDS011;18608;53.688;10.748;2023-08-12T08:45:48;5.53;;;5.03;;
32094;SDS011;18608;53.688;10.748;2023-08-12T08:48:17;5.93;;;4.30;;
32094;SDS011;18608;53.688;10.748;2023-08-12T08:50:44;8.03;;;4.90;;
32094;SDS011;18608;53.688;10.748;2023-08-12T08:53:11;10.67;;;5.07;;
32094;SDS011;18608;53.688;10.748;2023-08-12T08:55:39;10.40;;;5.73;;
32094;SDS011;18608;53.688;10.748;2023-08-12T08:58:08;4.30;;;3.87;;
32094;SDS011;18608;53.688;10.748;2023-08-12T09:00:33;5.87;;;4.67;;
32094;SDS011;18608;53.688;10.748;2023-08-12T09:03:01;5.30;;;4.73;;
32094;SDS011;18608;53.688;10.748;2023-08-12T09:05:28;7.20;;;4.63;;
32094;SDS011;18608;53.688;10.748;2023-08-12T09:07:55;11.27;;;6.57;;
32094;SDS011;18608;53.688;10.748;2023-08-12T09:10:23;9.23;;;5.00;;
32094;SDS011;18608;53.688;10.748;2023-08-12T09:12:51;6.13;;;5.23;;
32094;SDS011;18608;53.688;10.748;2023-08-12T09:15:18;9.87;;;3.93;;
32094;SDS011;18608;53.688;10.748;2023-08-12T09:17:44;5.90;;;4.60;;
32094;SDS011;18608;53.688;10.748;2023-08-12T09:20:10;6.03;;;4.67;;
32094;SDS011;18608;53.688;10.748;2023-08-12T09:22:42;5.40;;;3.93;;
32094;SDS011;18608;53.688;10.748;2023-08-12T09:25:08;7.73;;;5.30;;
32094;SDS011;18608;53.688;10.748;2023-08-12T09:27:38;5.20;;;4.77;;
32094;SDS011;18608;53.688;10.748;2023-08-12T09:30:04;6.80;;;4.70;;
32094;SDS011;18608;53.688;10.748;2023-08-12T09:32:30;7.30;;;4.70;;
32094;SDS011;18608;53.688;10.748;2023-08-12T09:34:59;11.10;;;5.40;;
32094;SDS011;18608;53.688;10.748;2023-08-12T09:37:28;5.53;;;4.30;;
32094;SDS011;18608;53.688;10.748;2023-08-12T09:39:54;5.13;;;4.67;;
32094;SDS011;18608;53.688;10.748;2023-08-12T09:42:20;7.60;;;5.30;;
32094;SDS011;18608;53.688;10.748;2023-08-12T09:44:46;5.70;;;5.03;;
32094;SDS011;18608;53.688;10.748;2023-08-12T09:47:12;5.27;;;4.77;;
32094;SDS011;18608;53.688;10.748;2023-08-12T09:49:38;16.53;;;5.83;;
32094;SDS011;18608;53.688;10.748;2023-08-12T09:52:05;5.40;;;4.90;;
32094;SDS011;18608;53.688;10.748;2023-08-12T09:54:31;8.10;;;5.10;;
32094;SDS011;18608;53.688;10.748;2023-08-12T09:56:58;4.60;;;4.30;;
32094;SDS011;18608;53.688;10.748;2023-08-12T09:59:29;7.73;;;5.00;;
32094;SDS011;18608;53.688;10.748;2023-08-12T10:01:57;7.07;;;5.30;;
32094;SDS011;18608;53.688;10.748;2023-08-12T10:04:25;8.60;;;5.60;;
32094;SDS011;18608;53.688;10.748;2023-08-12T10:06:53;6.17;;;4.80;;
32094;SDS011;18608;53.688;10.748;2023-08-12T10:09:20;5.90;;;5.30;;
32094;SDS011;18608;53.688;10.748;2023-08-12T10:11:46;5.57;;;5.00;;
32094;SDS011;18608;53.688;10.748;2023-08-12T10:14:13;8.47;;;5.57;;
32094;SDS011;18608;53.688;10.748;2023-08-12T10:16:39;8.30;;;5.10;;
32094;SDS011;18608;53.688;10.748;2023-08-12T10:19:11;6.57;;;4.73;;
32094;SDS011;18608;53.688;10.748;2023-08-12T10:21:37;8.03;;;5.60;;
32094;SDS011;18608;53.688;10.748;2023-08-12T10:24:03;5.00;;;4.57;;
32094;SDS011;18608;53.688;10.748;2023-08-12T10:26:29;9.43;;;5.60;;
32094;SDS011;18608;53.688;10.748;2023-08-12T10:28:55;6.20;;;4.90;;
32094;SDS011;18608;53.688;10.748;2023-08-12T10:31:22;7.10;;;5.80;;
32094;SDS011;18608;53.688;10.748;2023-08-12T10:33:48;7.67;;;5.10;;
32094;SDS011;18608;53.688;10.748;2023-08-12T10:36:15;5.63;;;5.23;;
32094;SDS011;18608;53.688;10.748;2023-08-12T10:38:44;5.90;;;5.00;;
32094;SDS011;18608;53.688;10.748;2023-08-12T10:41:16;12.67;;;9.73;;
32094;SDS011;18608;53.688;10.748;2023-08-12T10:43:53;6.70;;;6.10;;
32094;SDS011;18608;53.688;10.748;2023-08-12T10:48:59;10.60;;;5.43;;
32094;SDS011;18608;53.688;10.748;2023-08-12T11:02:21;11.90;;;8.13;;
32094;SDS011;18608;53.688;10.748;2023-08-12T11:07:38;6.50;;;5.67;;
32094;SDS011;18608;53.688;10.748;2023-08-12T11:10:10;10.40;;;5.90;;
32094;SDS011;18608;53.688;10.748;2023-08-12T11:12:37;10.07;;;4.80;;
32094;SDS011;18608;53.688;10.748;2023-08-12T11:15:04;11.67;;;10.50;;
32094;SDS011;18608;53.688;10.748;2023-08-12T11:17:34;5.63;;;5.13;;
32094;SDS011;18608;53.688;10.748;2023-08-12T11:20:11;5.73;;;5.10;;
32094;SDS011;18608;53.688;10.748;2023-08-12T11:22:38;11.00;;;5.40;;
32094;SDS011;18608;53.688;10.748;2023-08-12T11:25:06;5.40;;;5.00;;
32094;SDS011;18608;53.688;10.748;2023-08-12T11:27:43;9.60;;;6.50;;
32094;SDS011;18608;53.688;10.748;2023-08-12T11:30:11;7.20;;;6.50;;
32094;SDS011;18608;53.688;10.748;2023-08-12T11:32:44;17.80;;;6.67;;
32094;SDS011;18608;53.688;10.748;2023-08-12T11:35:12;9.93;;;6.23;;
32094;SDS011;18608;53.688;10.748;2023-08-12T11:37:39;9.60;;;5.83;;
32094;SDS011;18608;53.688;10.748;2023-08-12T11:40:06;6.67;;;5.77;;
32094;SDS011;18608;53.688;10.748;2023-08-12T11:42:36;6.03;;;5.53;;
32094;SDS011;18608;53.688;10.748;2023-08-12T11:45:04;14.70;;;6.03;;
32094;SDS011;18608;53.688;10.748;2023-08-12T11:47:30;7.10;;;6.33;;
32094;SDS011;18608;53.688;10.748;2023-08-12T11:49:56;14.20;;;7.23;;
32094;SDS011;18608;53.688;10.748;2023-08-12T11:52:22;7.00;;;5.90;;
32094;SDS011;18608;53.688;10.748;2023-08-12T11:54:49;6.40;;;5.80;;
32094;SDS011;18608;53.688;10.748;2023-08-12T11:57:15;7.03;;;6.03;;
32094;SDS011;18608;53.688;10.748;2023-08-12T11:59:42;6.87;;;5.57;;
32094;SDS011;18608;53.688;10.748;2023-08-12T12:02:08;9.20;;;7.00;;
32094;SDS011;18608;53.688;10.748;2023-08-12T12:04:35;9.07;;;6.60;;
32094;SDS011;18608;53.688;10.748;2023-08-12T12:07:01;7.00;;;5.10;;
32094;SDS011;18608;53.688;10.748;2023-08-12T12:09:31;6.73;;;6.00;;
32094;SDS011;18608;53.688;10.748;2023-08-12T12:11:57;7.47;;;6.63;;
32094;SDS011;18608;53.688;10.748;2023-08-12T12:14:24;10.00;;;6.50;;
32094;SDS011;18608;53.688;10.748;2023-08-12T12:16:50;9.50;;;6.60;;
32094;SDS011;18608;53.688;10.748;2023-08-12T12:19:17;6.70;;;6.10;;
32094;SDS011;18608;53.688;10.748;2023-08-12T12:21:48;6.87;;;6.20;;
32094;SDS011;18608;53.688;10.748;2023-08-12T12:24:15;7.47;;;6.60;;
32094;SDS011;18608;53.688;10.748;2023-08-12T12:26:41;7.10;;;6.37;;
32094;SDS011;18608;53.688;10.748;2023-08-12T12:29:07;7.60;;;6.90;;
32094;SDS011;18608;53.688;10.748;2023-08-12T12:31:34;8.43;;;7.43;;
32094;SDS011;18608;53.688;10.748;2023-08-12T12:34:01;9.33;;;8.23;;
32094;SDS011;18608;53.688;10.748;2023-08-12T12:36:29;10.33;;;6.53;;
32094;SDS011;18608;53.688;10.748;2023-08-12T12:38:55;15.70;;;7.20;;
32094;SDS011;18608;53.688;10.748;2023-08-12T12:41:21;9.60;;;7.30;;
32094;SDS011;18608;53.688;10.748;2023-08-12T12:43:47;11.33;;;7.33;;
32094;SDS011;18608;53.688;10.748;2023-08-12T12:46:13;7.90;;;7.10;;
32094;SDS011;18608;53.688;10.748;2023-08-12T12:48:39;11.37;;;6.63;;
32094;SDS011;18608;53.688;10.748;2023-08-12T12:51:05;9.50;;;7.00;;
32094;SDS011;18608;53.688;10.748;2023-08-12T12:53:31;7.77;;;6.97;;
32094;SDS011;18608;53.688;10.748;2023-08-12T12:55:58;11.27;;;7.50;;
32094;SDS011;18608;53.688;10.748;2023-08-12T12:58:28;11.93;;;7.00;;
32094;SDS011;18608;53.688;10.748;2023-08-12T13:00:54;10.53;;;6.60;;
32094;SDS011;18608;53.688;10.748;2023-08-12T13:03:20;9.73;;;7.77;;
32094;SDS011;18608;53.688;10.748;2023-08-12T13:05:46;9.00;;;7.00;;
32094;SDS011;18608;53.688;10.748;2023-08-12T13:08:12;7.97;;;7.27;;
32094;SDS011;18608;53.688;10.748;2023-08-12T13:10:38;13.30;;;7.60;;
32094;SDS011;18608;53.688;10.748;2023-08-12T13:13:04;8.37;;;7.23;;
32094;SDS011;18608;53.688;10.748;2023-08-12T13:15:30;6.40;;;5.90;;
32094;SDS011;18608;53.688;10.748;2023-08-12T13:17:56;9.57;;;7.03;;
32094;SDS011;18608;53.688;10.748;2023-08-12T13:20:22;7.30;;;6.70;;
32094;SDS011;18608;53.688;10.748;2023-08-12T13:22:48;10.20;;;7.53;;
32094;SDS011;18608;53.688;10.748;2023-08-12T13:25:15;10.90;;;7.43;;
32094;SDS011;18608;53.688;10.748;2023-08-12T13:27:41;6.80;;;6.30;;
32094;SDS011;18608;53.688;10.748;2023-08-12T13:30:08;10.07;;;8.40;;
32094;SDS011;18608;53.688;10.748;2023-08-12T13:32:36;10.80;;;7.57;;
32094;SDS011;18608;53.688;10.748;2023-08-12T13:35:02;16.30;;;7.83;;
32094;SDS011;18608;53.688;10.748;2023-08-12T13:37:28;18.40;;;8.40;;
32094;SDS011;18608;53.688;10.748;2023-08-12T13:39:54;7.57;;;6.83;;
32094;SDS011;18608;53.688;10.748;2023-08-12T13:42:20;8.63;;;7.87;;
32094;SDS011;18608;53.688;10.748;2023-08-12T13:44:46;9.17;;;7.60;;
32094;SDS011;18608;53.688;10.748;2023-08-12T13:47:12;16.60;;;8.73;;
32094;SDS011;18608;53.688;10.748;2023-08-12T13:49:38;22.03;;;7.10;;
32094;SDS011;18608;53.688;10.748;2023-08-12T13:52:05;9.37;;;7.93;;
32094;SDS011;18608;53.688;10.748;2023-08-12T13:54:31;9.90;;;7.10;;
32094;SDS011;18608;53.688;10.748;2023-08-12T13:56:58;8.33;;;7.53;;
32094;SDS011;18608;53.688;10.748;2023-08-12T13:59:24;16.67;;;7.57;;
32094;SDS011;18608;53.688;10.748;2023-08-12T14:01:50;9.80;;;8.10;;
32094;SDS011;18608;53.688;10.748;2023-08-12T14:04:15;8.50;;;6.53;;
32094;SDS011;18608;53.688;10.748;2023-08-12T14:06:41;7.80;;;7.00;;
32094;SDS011;18608;53.688;10.748;2023-08-12T14:09:08;14.00;;;6.73;;
32094;SDS011;18608;53.688;10.748;2023-08-12T14:11:37;8.77;;;7.30;;
32094;SDS011;18608;53.688;10.748;2023-08-12T14:14:03;7.90;;;7.00;;
32094;SDS011;18608;53.688;10.748;2023-08-12T14:16:29;12.83;;;7.30;;
32094;SDS011;18608;53.688;10.748;2023-08-12T14:18:55;17.97;;;8.60;;
32094;SDS011;18608;53.688;10.748;2023-08-12T14:21:21;11.20;;;6.97;;
32094;SDS011;18608;53.688;10.748;2023-08-12T14:23:47;10.90;;;7.40;;
32094;SDS011;18608;53.688;10.748;2023-08-12T14:26:13;18.30;;;8.17;;
32094;SDS011;18608;53.688;10.748;2023-08-12T14:28:39;10.83;;;8.23;;
32094;SDS011;18608;53.688;10.748;2023-08-12T14:31:05;8.17;;;7.40;;
32094;SDS011;18608;53.688;10.748;2023-08-12T14:33:31;12.00;;;7.53;;
32094;SDS011;18608;53.688;10.748;2023-08-12T14:35:57;9.73;;;8.03;;
32094;SDS011;18608;53.688;10.748;2023-08-12T14:38:23;9.43;;;8.40;;
32094;SDS011;18608;53.688;10.748;2023-08-12T14:40:49;9.83;;;8.17;;
32094;SDS011;18608;53.688;10.748;2023-08-12T14:43:15;9.37;;;8.13;;
32094;SDS011;18608;53.688;10.748;2023-08-12T14:45:44;15.80;;;7.77;;
32094;SDS011;18608;53.688;10.748;2023-08-12T14:48:10;9.60;;;8.50;;